createdAt,value
2022-08-05T00:01:30.259Z,4.57
2022-08-05T00:04:03.697Z,4.20
2022-08-05T00:06:35.935Z,3.78
2022-08-05T00:09:03.957Z,4.15
2022-08-05T00:11:35.058Z,4.00
2022-08-05T00:14:13.079Z,3.92
2022-08-05T00:16:52.595Z,3.90
2022-08-05T00:19:22.303Z,4.30
2022-08-05T00:21:49.746Z,4.32
2022-08-05T00:24:19.230Z,4.17
2022-08-05T00:26:52.828Z,4.30
2022-08-05T00:29:25.449Z,3.95
2022-08-05T00:32:12.220Z,4.68
2022-08-05T00:35:05.143Z,4.60
2022-08-05T00:37:51.097Z,4.83
2022-08-05T00:40:17.976Z,5.05
2022-08-05T00:42:54.875Z,5.32
2022-08-05T00:45:37.829Z,5.18
2022-08-05T00:48:07.403Z,5.30
2022-08-05T00:50:34.244Z,5.80
2022-08-05T00:53:01.030Z,4.20
2022-08-05T00:55:34.077Z,4.95
2022-08-05T00:58:11.291Z,4.60
2022-08-05T01:00:39.644Z,5.18
2022-08-05T01:03:07.922Z,5.27
2022-08-05T01:05:35.045Z,4.72
2022-08-05T01:08:30.704Z,5.35
2022-08-05T01:10:54.750Z,5.75
2022-08-05T01:13:57.404Z,5.30
2022-08-05T01:16:31.584Z,4.50
2022-08-05T01:19:06.747Z,5.05
2022-08-05T01:22:05.515Z,5.30
2022-08-05T01:24:41.281Z,5.00
2022-08-05T01:27:55.071Z,4.70
2022-08-05T01:30:34.784Z,4.87
2022-08-05T01:33:08.371Z,4.60
2022-08-05T01:35:50.837Z,5.18
2022-08-05T01:38:27.610Z,5.03
2022-08-05T01:40:58.686Z,4.82
2022-08-05T01:43:28.092Z,4.90
2022-08-05T01:45:56.716Z,4.70
2022-08-05T01:48:26.950Z,4.70
2022-08-05T01:50:56.482Z,4.75
2022-08-05T01:53:54.668Z,4.82
2022-08-05T01:58:11.162Z,5.30
2022-08-05T01:59:06.550Z,5.43
2022-08-05T02:01:39.858Z,4.85
2022-08-05T02:04:09.306Z,4.97
2022-08-05T02:06:38.950Z,4.60
2022-08-05T02:09:07.307Z,4.63
2022-08-05T02:11:52.566Z,4.60
2022-08-05T02:14:52.524Z,4.55
2022-08-05T02:18:29.333Z,4.70
2022-08-05T02:20:28.024Z,5.20
2022-08-05T02:22:59.759Z,5.30
2022-08-05T02:25:33.264Z,5.15
2022-08-05T02:28:02.415Z,5.45
2022-08-05T02:30:56.690Z,5.25
2022-08-05T02:33:38.304Z,5.03
2022-08-05T02:36:09.397Z,5.10
2022-08-05T02:38:37.508Z,4.85
2022-08-05T02:41:14.771Z,5.53
2022-08-05T02:44:02.870Z,4.88
2022-08-05T02:46:33.755Z,5.22
2022-08-05T02:49:01.793Z,4.90
2022-08-05T02:52:01.216Z,5.00
2022-08-05T02:54:34.801Z,5.15
2022-08-05T02:57:10.164Z,5.35
2022-08-05T02:59:55.333Z,5.22
2022-08-05T03:02:29.764Z,4.97
2022-08-05T03:04:57.898Z,5.30
2022-08-05T03:07:59.248Z,5.20
2022-08-05T03:10:15.788Z,5.18
2022-08-05T03:12:51.914Z,5.43
2022-08-05T03:15:20.183Z,4.30
2022-08-05T03:17:46.808Z,5.13
2022-08-05T03:20:13.852Z,5.10
2022-08-05T03:22:46.827Z,4.80
2022-08-05T03:25:33.787Z,4.93
2022-08-05T03:28:08.167Z,4.70
2022-08-05T03:30:36.800Z,4.82
2022-08-05T03:33:07.484Z,4.80
2022-08-05T03:35:40.980Z,4.50
2022-08-05T03:38:11.615Z,4.28
2022-08-05T03:40:45.168Z,4.33
2022-08-05T03:43:58.675Z,4.10
2022-08-05T03:46:01.680Z,4.30
2022-08-05T03:48:29.436Z,4.30
2022-08-05T03:51:04.870Z,4.70
2022-08-05T03:55:00.073Z,4.40
2022-08-05T03:57:41.571Z,4.53
2022-08-05T04:00:05.733Z,4.78
2022-08-05T04:02:37.490Z,4.20
2022-08-05T04:05:09.844Z,4.20
2022-08-05T04:07:57.891Z,4.40
2022-08-05T04:10:27.947Z,4.55
2022-08-05T04:12:56.403Z,3.97
2022-08-05T04:15:27.722Z,4.28
2022-08-05T04:18:03.226Z,4.68
2022-08-05T04:20:29.981Z,4.10
2022-08-05T04:22:58.345Z,3.50
2022-08-05T04:25:38.519Z,4.10
2022-08-05T04:28:12.923Z,4.00
2022-08-05T04:30:39.794Z,4.00
2022-08-05T04:33:06.395Z,3.90
2022-08-05T04:36:10.689Z,4.20
2022-08-05T04:38:21.055Z,4.57
2022-08-05T04:40:50.685Z,4.60
2022-08-05T04:43:17.747Z,4.53
2022-08-05T04:45:54.740Z,4.63
2022-08-05T04:48:28.093Z,4.10
2022-08-05T04:51:03.513Z,4.40
2022-08-05T04:53:38.804Z,4.40
2022-08-05T04:56:32.342Z,4.38
2022-08-05T04:58:54.565Z,4.53
2022-08-05T05:02:08.030Z,11.02
2022-08-05T05:04:07.826Z,5.03
2022-08-05T05:06:44.028Z,4.72
2022-08-05T05:09:14.272Z,5.07
2022-08-05T05:11:53.068Z,4.80
2022-08-05T05:14:31.942Z,4.72
2022-08-05T05:17:00.607Z,4.80
2022-08-05T05:19:36.939Z,4.30
2022-08-05T05:22:22.624Z,4.63
2022-08-05T05:24:57.410Z,4.43
2022-08-05T05:27:45.867Z,4.35
2022-08-05T05:30:30.519Z,3.78
2022-08-05T05:33:03.880Z,3.78
2022-08-05T05:35:42.504Z,4.20
2022-08-05T05:38:13.712Z,4.23
2022-08-05T05:40:48.257Z,3.70
2022-08-05T05:43:54.398Z,3.92
2022-08-05T05:46:17.322Z,3.95
2022-08-05T05:48:46.009Z,3.70
2022-08-05T05:51:22.435Z,3.70
2022-08-05T05:53:57.239Z,3.40
2022-08-05T05:56:26.235Z,3.30
2022-08-05T05:59:03.241Z,3.10
2022-08-05T06:01:37.022Z,3.63
2022-08-05T06:04:11.945Z,3.30
2022-08-05T06:06:42.904Z,4.57
2022-08-05T06:09:17.679Z,3.78
2022-08-05T06:12:01.810Z,3.10
2022-08-05T06:14:30.677Z,3.47
2022-08-05T06:16:57.889Z,3.70
2022-08-05T06:19:26.206Z,3.17
2022-08-05T06:22:03.001Z,3.40
2022-08-05T06:24:30.076Z,3.20
2022-08-05T06:26:57.820Z,3.03
2022-08-05T06:29:46.346Z,3.00
2022-08-05T06:32:21.207Z,2.85
2022-08-05T06:34:56.404Z,3.90
2022-08-05T06:37:56.926Z,2.65
2022-08-05T06:40:11.902Z,2.55
2022-08-05T06:42:39.714Z,2.40
2022-08-05T06:45:08.623Z,2.30
2022-08-05T06:48:37.486Z,2.03
2022-08-05T06:50:22.394Z,2.10
2022-08-05T06:52:58.770Z,1.98
2022-08-05T06:55:36.523Z,1.60
2022-08-05T06:58:29.826Z,2.85
2022-08-05T07:00:50.964Z,2.25
2022-08-05T07:03:17.804Z,2.15
2022-08-05T07:05:46.264Z,2.25
2022-08-05T07:08:13.447Z,2.10
2022-08-05T07:10:53.294Z,1.30
2022-08-05T07:13:57.611Z,1.45
2022-08-05T07:18:02.351Z,1.40
2022-08-05T07:22:28.346Z,1.60
2022-08-05T07:25:23.585Z,1.40
2022-08-05T07:27:57.513Z,1.90
2022-08-05T07:30:32.783Z,1.15
2022-08-05T07:33:08.880Z,1.27
2022-08-05T07:36:04.134Z,1.20
2022-08-05T07:38:34.378Z,1.13
2022-08-05T07:42:07.063Z,1.30
2022-08-05T07:43:58.659Z,1.05
2022-08-05T07:46:27.170Z,1.10
2022-08-05T07:49:02.944Z,1.90
2022-08-05T07:51:40.634Z,4.00
2022-08-05T07:54:16.081Z,1.30
2022-08-05T07:57:01.857Z,1.08
2022-08-05T07:59:40.455Z,1.35
2022-08-05T08:02:17.131Z,0.90
2022-08-05T08:04:49.533Z,1.20
2022-08-05T08:07:18.237Z,1.20
2022-08-05T08:09:49.346Z,0.82
2022-08-05T08:12:37.025Z,1.05
2022-08-05T08:15:09.727Z,1.10
2022-08-05T08:17:45.987Z,1.20
2022-08-05T08:20:42.569Z,0.80
2022-08-05T08:23:03.391Z,0.60
2022-08-05T08:26:00.393Z,0.95
2022-08-05T08:28:18.959Z,0.73
2022-08-05T08:31:02.583Z,0.90
2022-08-05T08:33:35.980Z,1.00
2022-08-05T08:36:40.248Z,0.82
2022-08-05T08:38:55.468Z,1.00
2022-08-05T08:41:26.205Z,0.70
2022-08-05T08:45:18.095Z,0.98
2022-08-05T08:47:02.839Z,1.98
2022-08-05T08:50:05.915Z,0.90
2022-08-05T08:52:33.369Z,0.73
2022-08-05T08:55:00.318Z,1.00
2022-08-05T08:57:42.000Z,0.90
2022-08-05T09:00:15.666Z,1.20
2022-08-05T09:02:46.641Z,1.10
2022-08-05T09:05:17.605Z,0.93
2022-08-05T09:07:57.800Z,1.10
2022-08-05T09:10:27.856Z,1.10
2022-08-05T09:12:57.057Z,1.25
2022-08-05T09:15:31.606Z,1.00
2022-08-05T09:18:03.518Z,1.02
2022-08-05T09:20:37.324Z,0.90
2022-08-05T09:23:18.724Z,0.90
2022-08-05T09:26:01.375Z,0.90
2022-08-05T09:28:34.243Z,1.00
2022-08-05T09:31:23.283Z,0.90
2022-08-05T09:33:59.076Z,0.90
2022-08-05T09:36:38.146Z,1.10
2022-08-05T09:39:16.378Z,1.17
2022-08-05T09:42:03.848Z,1.00
2022-08-05T09:44:38.410Z,0.98
2022-08-05T09:47:48.175Z,0.83
2022-08-05T09:50:37.307Z,0.68
2022-08-05T09:53:05.048Z,1.00
2022-08-05T09:55:57.523Z,0.90
2022-08-05T09:58:23.647Z,0.90
2022-08-05T10:01:07.292Z,0.70
2022-08-05T10:03:58.880Z,0.90
2022-08-05T10:06:30.948Z,0.88
2022-08-05T10:09:27.535Z,0.80
2022-08-05T10:12:18.781Z,0.80
2022-08-05T10:15:13.656Z,1.00
2022-08-05T10:17:54.418Z,0.70
2022-08-05T10:20:23.947Z,0.90
2022-08-05T10:22:51.999Z,0.80
2022-08-05T10:25:19.692Z,0.70
2022-08-05T10:28:13.326Z,0.80
2022-08-05T10:32:49.067Z,0.80
2022-08-05T10:33:28.803Z,0.80
2022-08-05T10:35:59.754Z,0.50
2022-08-05T10:38:28.548Z,0.60
2022-08-05T10:41:05.306Z,0.87
2022-08-05T10:43:44.812Z,0.65
2022-08-05T10:46:14.365Z,0.70
2022-08-05T10:48:56.614Z,0.80
2022-08-05T10:51:29.047Z,0.80
2022-08-05T10:54:23.152Z,0.70
2022-08-05T10:56:57.323Z,0.75
2022-08-05T11:00:03.769Z,0.68
2022-08-05T11:02:34.809Z,0.88
2022-08-05T11:05:09.325Z,1.10
2022-08-05T11:08:01.792Z,1.10
2022-08-05T11:10:36.964Z,0.95
2022-08-05T11:13:05.733Z,0.63
2022-08-05T11:16:00.346Z,0.90
2022-08-05T11:18:35.194Z,1.00
2022-08-05T11:21:11.361Z,0.73
2022-08-05T11:24:04.103Z,0.80
2022-08-05T11:26:43.408Z,1.10
2022-08-05T11:29:37.402Z,0.70
2022-08-05T11:32:23.526Z,0.70
2022-08-05T11:34:54.423Z,0.80
2022-08-05T11:38:29.935Z,0.85
2022-08-05T11:41:13.956Z,1.38
2022-08-05T11:44:07.590Z,0.70
2022-08-05T11:46:58.206Z,1.20
2022-08-05T11:49:36.085Z,0.83
2022-08-05T11:52:08.299Z,0.85
2022-08-05T11:54:38.189Z,0.80
2022-08-05T11:57:24.161Z,0.90
2022-08-05T11:59:53.681Z,0.90
2022-08-05T12:02:33.156Z,0.60
2022-08-05T12:05:07.710Z,0.73
2022-08-05T12:08:08.894Z,0.88
2022-08-05T12:10:43.053Z,0.65
2022-08-05T12:13:15.551Z,0.90
2022-08-05T12:15:49.723Z,1.00
2022-08-05T12:18:20.593Z,0.95
2022-08-05T12:20:50.816Z,0.95
2022-08-05T12:23:17.424Z,0.77
2022-08-05T12:25:57.006Z,0.93
2022-08-05T12:28:37.791Z,0.87
2022-08-05T12:31:05.226Z,1.00
2022-08-05T12:33:36.590Z,0.80
2022-08-05T12:36:08.764Z,1.05
2022-08-05T12:38:40.107Z,0.85
2022-08-05T12:41:13.261Z,0.80
2022-08-05T12:43:57.344Z,0.80
2022-08-05T12:46:29.375Z,0.80
2022-08-05T12:49:13.517Z,0.57
2022-08-05T12:52:12.956Z,0.70
2022-08-05T12:54:40.404Z,0.40
2022-08-05T12:57:18.161Z,0.50
2022-08-05T13:01:57.919Z,0.60
2022-08-05T13:02:39.969Z,0.70
2022-08-05T13:05:08.353Z,0.80
2022-08-05T13:08:00.115Z,0.50
2022-08-05T13:10:28.841Z,0.60
2022-08-05T13:12:58.166Z,0.60
2022-08-05T13:15:36.119Z,0.50
2022-08-05T13:18:19.912Z,0.80
2022-08-05T13:20:47.297Z,0.63
2022-08-05T13:23:16.404Z,0.80
2022-08-05T13:25:51.872Z,0.70
2022-08-05T13:28:25.379Z,0.57
2022-08-05T13:30:53.290Z,0.80
2022-08-05T13:34:23.937Z,0.90
2022-08-05T13:36:09.098Z,0.88
2022-08-05T13:38:38.526Z,0.57
2022-08-05T13:41:09.409Z,0.68
2022-08-05T13:43:44.271Z,0.65
2022-08-05T13:46:13.395Z,0.50
2022-08-05T13:48:58.204Z,0.65
2022-08-05T13:51:40.297Z,0.70
2022-08-05T13:54:12.258Z,0.60
2022-08-05T13:56:44.909Z,0.63
2022-08-05T13:59:19.999Z,0.50
2022-08-05T14:01:59.005Z,0.50
2022-08-05T14:04:51.045Z,0.60
2022-08-05T14:07:25.411Z,0.80
2022-08-05T14:10:13.623Z,0.90
2022-08-05T14:12:48.514Z,0.67
2022-08-05T14:16:07.367Z,0.50
2022-08-05T14:18:03.958Z,0.60
2022-08-05T14:20:32.825Z,0.73
2022-08-05T14:22:59.919Z,0.60
2022-08-05T14:25:28.016Z,0.70
2022-08-05T14:27:55.385Z,0.60
2022-08-05T14:30:22.334Z,0.65
2022-08-05T14:32:52.578Z,0.60
2022-08-05T14:35:20.758Z,1.40
2022-08-05T14:37:53.512Z,0.50
2022-08-05T14:40:24.571Z,0.60
2022-08-05T14:42:51.890Z,0.60
2022-08-05T14:45:18.883Z,1.98
2022-08-05T14:48:03.543Z,0.80
2022-08-05T14:50:32.204Z,0.70
2022-08-05T14:53:00.265Z,0.90
2022-08-05T14:55:38.520Z,0.80
2022-08-05T14:58:10.966Z,0.70
2022-08-05T15:00:39.666Z,0.60
2022-08-05T15:03:33.866Z,0.80
2022-08-05T15:06:07.608Z,0.50
2022-08-05T15:09:01.279Z,0.80
2022-08-05T15:11:52.611Z,0.85
2022-08-05T15:14:33.306Z,0.90
2022-08-05T15:17:01.690Z,0.70
2022-08-05T15:19:30.710Z,0.80
2022-08-05T15:21:59.917Z,1.00
2022-08-05T15:24:27.876Z,0.70
2022-08-05T15:26:55.972Z,0.80
2022-08-05T15:29:23.553Z,0.80
2022-08-05T15:31:56.545Z,0.70
2022-08-05T15:34:32.227Z,0.70
2022-08-05T15:37:06.156Z,0.90
2022-08-05T15:41:03.178Z,0.77
2022-08-05T15:42:53.610Z,0.70
2022-08-05T15:45:15.768Z,0.60
2022-08-05T15:47:44.174Z,0.90
2022-08-05T15:50:15.482Z,0.90
2022-08-05T15:52:53.322Z,11.43
2022-08-05T15:55:24.630Z,1.27
2022-08-05T15:58:08.516Z,0.77
2022-08-05T16:00:50.358Z,2.40
2022-08-05T16:03:23.545Z,1.30
2022-08-05T16:05:52.794Z,1.23
2022-08-05T16:08:22.619Z,0.87
2022-08-05T16:10:50.633Z,0.73
2022-08-05T16:13:23.407Z,0.90
2022-08-05T16:15:51.899Z,0.98
2022-08-05T16:18:19.649Z,0.70
2022-08-05T16:20:46.294Z,0.83
2022-08-05T16:23:12.962Z,0.93
2022-08-05T16:25:40.019Z,0.70
2022-08-05T16:28:09.786Z,0.63
2022-08-05T16:30:37.413Z,0.82
2022-08-05T16:33:04.565Z,1.60
2022-08-05T16:35:33.581Z,1.35
2022-08-05T16:38:18.575Z,1.23
2022-08-05T16:41:00.265Z,0.95
2022-08-05T16:43:32.076Z,1.10
2022-08-05T16:46:04.033Z,2.70
2022-08-05T16:48:35.932Z,1.40
2022-08-05T16:51:03.965Z,1.27
2022-08-05T16:54:03.991Z,1.20
2022-08-05T16:56:23.683Z,1.27
2022-08-05T16:58:50.427Z,1.30
2022-08-05T17:01:18.909Z,0.98
2022-08-05T17:03:46.011Z,1.10
2022-08-05T17:06:13.228Z,1.10
2022-08-05T17:08:53.496Z,1.30
2022-08-05T17:11:25.510Z,1.20
2022-08-05T17:14:00.488Z,0.98
2022-08-05T17:16:37.174Z,1.80
2022-08-05T17:19:09.583Z,1.45
2022-08-05T17:21:37.754Z,1.05
2022-08-05T17:24:27.943Z,0.93
2022-08-05T17:26:56.311Z,0.65
2022-08-05T17:29:33.813Z,0.95
2022-08-05T17:32:11.412Z,2.05
2022-08-05T17:34:38.499Z,1.00
2022-08-05T17:37:40.688Z,1.20
2022-08-05T17:40:10.111Z,1.30
2022-08-05T17:42:41.626Z,1.35
2022-08-05T17:45:20.389Z,1.13
2022-08-05T17:47:53.936Z,1.38
2022-08-05T17:50:28.435Z,1.45
2022-08-05T17:52:59.182Z,1.10
2022-08-05T17:55:27.297Z,0.80
2022-08-05T17:58:02.298Z,0.90
2022-08-05T18:00:29.754Z,1.42
2022-08-05T18:02:56.973Z,0.93
2022-08-05T18:05:24.133Z,1.00
2022-08-05T18:07:55.096Z,0.93
2022-08-05T18:10:24.554Z,1.05
2022-08-05T18:12:52.381Z,1.33
2022-08-05T18:15:18.991Z,1.00
2022-08-05T18:18:01.503Z,2.27
2022-08-05T18:20:31.605Z,1.10
2022-08-05T18:23:09.433Z,0.90
2022-08-05T18:25:45.613Z,1.25
2022-08-05T18:28:16.120Z,0.90
2022-08-05T18:30:50.833Z,1.30
2022-08-05T18:33:23.103Z,0.90
2022-08-05T18:36:04.241Z,1.10
2022-08-05T18:38:36.427Z,0.82
2022-08-05T18:41:56.161Z,1.00
2022-08-05T18:43:51.375Z,1.05
2022-08-05T18:46:20.063Z,1.13
2022-08-05T18:48:52.287Z,1.38
2022-08-05T18:52:03.975Z,1.15
2022-08-05T18:54:31.345Z,1.10
2022-08-05T18:57:01.853Z,1.08
2022-08-05T18:59:43.182Z,1.20
2022-08-05T19:02:26.627Z,1.30
2022-08-05T19:05:02.671Z,1.20
2022-08-05T19:07:57.573Z,1.05
2022-08-05T19:10:28.101Z,1.08
2022-08-05T19:12:58.314Z,1.30
2022-08-05T19:15:57.293Z,1.52
2022-08-05T19:18:22.350Z,12.40
2022-08-05T19:20:52.339Z,1.60
2022-08-05T19:24:04.397Z,1.33
2022-08-05T19:26:09.312Z,1.52
2022-08-05T19:28:41.489Z,1.80
2022-08-05T19:31:09.192Z,1.50
2022-08-05T19:33:40.751Z,1.48
2022-08-05T19:36:16.919Z,1.73
2022-08-05T19:38:45.538Z,1.80
2022-08-05T19:41:12.370Z,1.20
2022-08-05T19:44:06.549Z,1.57
2022-08-05T19:46:30.955Z,1.40
2022-08-05T19:49:03.301Z,1.75
2022-08-05T19:52:05.821Z,1.50
2022-08-05T19:54:32.966Z,1.30
2022-08-05T19:57:02.303Z,1.48
2022-08-05T19:59:56.005Z,1.10
2022-08-05T20:02:17.550Z,1.25
2022-08-05T20:04:45.789Z,1.40
2022-08-05T20:07:14.030Z,1.52
2022-08-05T20:09:54.008Z,1.50
2022-08-05T20:12:23.443Z,1.47
2022-08-05T20:14:52.061Z,1.83
2022-08-05T20:17:19.270Z,1.80
2022-08-05T20:19:50.093Z,1.45
2022-08-05T20:22:17.004Z,1.50
2022-08-05T20:24:43.524Z,2.40
2022-08-05T20:27:11.099Z,1.65
2022-08-05T20:29:39.699Z,1.40
2022-08-05T20:32:06.613Z,1.65
2022-08-05T20:34:33.314Z,1.70
2022-08-05T20:37:00.939Z,1.73
2022-08-05T20:39:35.601Z,1.40
2022-08-05T20:42:04.812Z,1.50
2022-08-05T20:44:32.775Z,1.30
2022-08-05T20:47:07.484Z,2.00
2022-08-05T20:49:39.318Z,2.20
2022-08-05T20:52:07.896Z,2.20
2022-08-05T20:54:43.349Z,2.05
2022-08-05T20:57:42.050Z,1.90
2022-08-05T21:00:35.039Z,1.70
2022-08-05T21:03:01.501Z,2.60
2022-08-05T21:05:37.969Z,2.45
2022-08-05T21:08:14.910Z,1.70
2022-08-05T21:10:49.029Z,1.95
2022-08-05T21:13:26.048Z,1.50
2022-08-05T21:16:03.592Z,2.17
2022-08-05T21:18:30.433Z,1.50
2022-08-05T21:20:57.503Z,1.40
2022-08-05T21:23:24.582Z,1.48
2022-08-05T21:25:51.543Z,1.70
2022-08-05T21:28:48.015Z,1.57
2022-08-05T21:31:18.062Z,1.58
2022-08-05T21:33:47.692Z,1.58
2022-08-05T21:36:19.108Z,1.70
2022-08-05T21:38:54.769Z,2.30
2022-08-05T21:41:21.493Z,2.00
2022-08-05T21:43:51.014Z,1.90
2022-08-05T21:46:28.609Z,1.70
2022-08-05T21:48:56.821Z,1.73
2022-08-05T21:52:16.035Z,1.65
2022-08-05T21:54:12.917Z,1.90
2022-08-05T21:56:44.660Z,2.45
2022-08-05T21:59:23.959Z,2.67
2022-08-05T22:01:54.706Z,2.38
2022-08-05T22:04:25.495Z,2.33
2022-08-05T22:06:52.702Z,2.37
2022-08-05T22:09:21.643Z,2.17
2022-08-05T22:11:49.226Z,2.20
2022-08-05T22:14:33.443Z,2.13
2022-08-05T22:17:03.935Z,2.10
2022-08-05T22:20:00.541Z,1.87
2022-08-05T22:22:27.254Z,1.80
2022-08-05T22:25:18.147Z,1.80
2022-08-05T22:28:09.384Z,1.70
2022-08-05T22:30:53.533Z,1.60
2022-08-05T22:33:56.946Z,1.97
2022-08-05T22:36:09.520Z,1.90
2022-08-05T22:38:36.801Z,1.98
2022-08-05T22:41:09.899Z,1.83
2022-08-05T22:43:38.136Z,1.90
2022-08-05T22:46:13.255Z,2.00
2022-08-05T22:48:50.515Z,1.70
2022-08-05T22:51:22.672Z,1.75
2022-08-05T22:53:50.273Z,2.05
2022-08-05T22:56:17.781Z,1.83
2022-08-05T22:58:58.058Z,1.70
2022-08-05T23:02:04.553Z,1.75
2022-08-05T23:04:13.495Z,2.05
2022-08-05T23:06:41.159Z,1.95
2022-08-05T23:09:28.089Z,1.67
2022-08-05T23:11:55.787Z,2.00
2022-08-05T23:14:32.085Z,1.73
2022-08-05T23:17:24.026Z,2.00
2022-08-05T23:20:00.488Z,1.63
2022-08-05T23:22:29.484Z,1.90
2022-08-05T23:24:57.789Z,1.67
2022-08-05T23:27:31.235Z,1.88
2022-08-05T23:29:58.469Z,1.77
2022-08-05T23:32:26.935Z,1.55
2022-08-05T23:34:53.883Z,1.60
2022-08-05T23:37:20.478Z,1.60
2022-08-05T23:39:53.611Z,1.98
2022-08-05T23:42:23.287Z,1.60
2022-08-05T23:44:55.393Z,1.88
2022-08-05T23:47:21.993Z,1.83
2022-08-05T23:49:52.004Z,1.37
2022-08-05T23:52:32.607Z,1.88
2022-08-05T23:55:07.129Z,1.75
2022-08-05T23:57:36.233Z,1.60
